createdAt,value
2022-08-03T00:00:24.230Z,2.92
2022-08-03T00:02:50.754Z,2.22
2022-08-03T00:05:17.199Z,1.70
2022-08-03T00:07:43.560Z,2.42
2022-08-03T00:10:12.468Z,2.10
2022-08-03T00:12:38.895Z,4.50
2022-08-03T00:15:11.065Z,2.25
2022-08-03T00:17:53.302Z,3.97
2022-08-03T00:20:23.339Z,3.15
2022-08-03T00:22:50.765Z,3.00
2022-08-03T00:25:18.088Z,1.00
2022-08-03T00:27:44.599Z,0.98
2022-08-03T00:30:11.461Z,2.47
2022-08-03T00:32:40.051Z,2.15
2022-08-03T00:35:18.025Z,2.38
2022-08-03T00:37:58.346Z,2.20
2022-08-03T00:40:24.790Z,2.83
2022-08-03T00:42:53.942Z,2.07
2022-08-03T00:45:22.560Z,1.50
2022-08-03T00:47:49.226Z,3.88
2022-08-03T00:50:16.516Z,3.28
2022-08-03T00:52:43.147Z,3.00
2022-08-03T00:55:10.503Z,1.77
2022-08-03T00:57:37.639Z,4.70
2022-08-03T01:00:07.237Z,1.88
2022-08-03T01:02:33.943Z,1.02
2022-08-03T01:05:00.317Z,2.13
2022-08-03T01:07:40.992Z,4.63
2022-08-03T01:10:21.219Z,2.38
2022-08-03T01:12:57.715Z,0.85
2022-08-03T01:15:38.566Z,1.85
2022-08-03T01:18:17.060Z,1.05
2022-08-03T01:20:47.172Z,3.17
2022-08-03T01:23:45.979Z,2.38
2022-08-03T01:26:27.464Z,1.30
2022-08-03T01:29:24.777Z,1.60
2022-08-03T01:32:59.232Z,1.85
2022-08-03T01:35:03.676Z,2.13
2022-08-03T01:37:42.236Z,1.17
2022-08-03T01:40:11.558Z,1.10
2022-08-03T01:42:41.162Z,1.30
2022-08-03T01:45:10.796Z,1.52
2022-08-03T01:47:38.772Z,2.07
2022-08-03T01:50:08.693Z,1.50
2022-08-03T01:52:39.472Z,1.63
2022-08-03T01:55:07.265Z,1.70
2022-08-03T01:57:35.131Z,3.50
2022-08-03T02:00:21.916Z,2.73
2022-08-03T02:02:50.667Z,1.63
2022-08-03T02:05:19.687Z,1.55
2022-08-03T02:07:47.839Z,1.80
2022-08-03T02:10:16.343Z,1.27
2022-08-03T02:13:01.963Z,3.53
2022-08-03T02:15:30.243Z,2.17
2022-08-03T02:17:59.255Z,1.52
2022-08-03T02:20:32.899Z,3.08
2022-08-03T02:22:59.437Z,1.35
2022-08-03T02:25:26.059Z,1.37
2022-08-03T02:27:57.859Z,3.90
2022-08-03T02:30:31.281Z,2.65
2022-08-03T02:32:59.179Z,2.42
2022-08-03T02:35:29.446Z,1.77
2022-08-03T02:38:03.811Z,1.80
2022-08-03T02:40:32.379Z,1.90
2022-08-03T02:43:07.799Z,1.00
2022-08-03T02:45:45.119Z,1.98
2022-08-03T02:48:17.261Z,1.90
2022-08-03T02:50:45.194Z,1.53
2022-08-03T02:53:13.120Z,1.77
2022-08-03T02:55:43.152Z,1.65
2022-08-03T02:58:13.843Z,1.50
2022-08-03T03:00:43.188Z,0.65
2022-08-03T03:03:10.993Z,2.00
2022-08-03T03:05:55.165Z,2.15
2022-08-03T03:08:28.196Z,1.35
2022-08-03T03:11:00.167Z,1.67
2022-08-03T03:13:29.427Z,2.22
2022-08-03T03:15:59.538Z,2.07
2022-08-03T03:18:28.796Z,2.08
2022-08-03T03:20:56.260Z,3.38
2022-08-03T03:23:24.778Z,1.65
2022-08-03T03:25:52.281Z,1.80
2022-08-03T03:28:19.326Z,1.20
2022-08-03T03:30:52.639Z,1.83
2022-08-03T03:33:19.681Z,2.15
2022-08-03T03:35:46.867Z,1.08
2022-08-03T03:38:13.409Z,1.20
2022-08-03T03:40:40.423Z,2.03
2022-08-03T03:43:11.719Z,2.05
2022-08-03T03:45:41.231Z,1.50
2022-08-03T03:48:07.934Z,0.77
2022-08-03T03:50:36.152Z,1.88
2022-08-03T03:53:04.123Z,4.53
2022-08-03T03:55:31.151Z,3.33
2022-08-03T03:57:57.506Z,3.13
2022-08-03T04:00:23.881Z,3.95
2022-08-03T04:02:50.252Z,3.53
2022-08-03T04:05:35.200Z,3.13
2022-08-03T04:08:27.722Z,2.58
2022-08-03T04:11:19.556Z,2.50
2022-08-03T04:14:19.891Z,4.20
2022-08-03T04:16:50.578Z,7.15
2022-08-03T04:19:42.277Z,5.27
2022-08-03T04:22:16.015Z,3.65
2022-08-03T04:24:51.163Z,6.97
2022-08-03T04:27:21.911Z,7.10
2022-08-03T04:29:51.668Z,3.75
2022-08-03T04:32:20.220Z,5.37
2022-08-03T04:34:47.369Z,5.63
2022-08-03T04:37:38.731Z,4.70
2022-08-03T04:40:22.873Z,5.97
2022-08-03T04:42:50.314Z,3.78
2022-08-03T04:45:19.128Z,7.23
2022-08-03T04:47:45.641Z,8.35
2022-08-03T04:50:15.931Z,8.35
2022-08-03T04:52:45.042Z,7.50
2022-08-03T04:55:11.519Z,9.68
2022-08-03T04:57:38.138Z,4.30
2022-08-03T05:00:05.914Z,5.63
2022-08-03T05:02:32.474Z,6.97
2022-08-03T05:04:59.476Z,7.28
2022-08-03T05:07:25.946Z,7.78
2022-08-03T05:10:01.808Z,5.80
2022-08-03T05:12:32.782Z,5.40
2022-08-03T05:15:00.133Z,8.43
2022-08-03T05:17:27.091Z,6.00
2022-08-03T05:19:53.498Z,8.52
2022-08-03T05:22:20.615Z,11.70
2022-08-03T05:24:47.362Z,7.22
2022-08-03T05:27:22.627Z,4.90
2022-08-03T05:29:50.785Z,6.20
2022-08-03T05:32:18.468Z,4.90
2022-08-03T05:34:44.981Z,5.10
2022-08-03T05:37:11.544Z,5.68
2022-08-03T05:39:38.179Z,10.65
2022-08-03T05:42:04.720Z,4.05
2022-08-03T05:44:31.673Z,6.45
2022-08-03T05:46:58.512Z,5.20
2022-08-03T05:49:24.920Z,12.50
2022-08-03T05:51:59.980Z,13.35
2022-08-03T05:54:55.361Z,13.40
2022-08-03T05:57:23.417Z,10.48
2022-08-03T05:59:53.878Z,5.50
2022-08-03T06:02:24.133Z,7.50
2022-08-03T06:04:50.496Z,8.82
2022-08-03T06:07:16.849Z,8.82
2022-08-03T06:10:33.733Z,8.52
2022-08-03T06:12:30.148Z,8.10
2022-08-03T06:14:56.695Z,5.65
2022-08-03T06:17:23.070Z,6.05
2022-08-03T06:19:53.416Z,3.45
2022-08-03T06:22:20.516Z,8.60
2022-08-03T06:24:53.255Z,11.70
2022-08-03T06:27:20.470Z,8.68
2022-08-03T06:30:03.889Z,6.15
2022-08-03T06:32:30.243Z,7.63
2022-08-03T06:34:56.576Z,7.78
2022-08-03T06:37:24.484Z,6.50
2022-08-03T06:39:50.831Z,7.13
2022-08-03T06:42:17.428Z,10.25
2022-08-03T06:44:44.048Z,5.80
2022-08-03T06:47:10.463Z,6.47
2022-08-03T06:49:37.257Z,7.70
2022-08-03T06:52:06.945Z,9.18
2022-08-03T06:54:33.780Z,6.40
2022-08-03T06:57:00.252Z,7.22
2022-08-03T07:00:09.451Z,7.88
2022-08-03T07:02:13.208Z,6.33
2022-08-03T07:04:45.851Z,8.88
2022-08-03T07:07:12.230Z,6.55
2022-08-03T07:09:38.594Z,4.30
2022-08-03T07:12:08.219Z,5.88
2022-08-03T07:14:35.000Z,4.43
2022-08-03T07:17:01.427Z,7.10
2022-08-03T07:19:31.011Z,5.55
2022-08-03T07:21:58.285Z,6.65
2022-08-03T07:24:29.121Z,5.88
2022-08-03T07:26:55.493Z,2.77
2022-08-03T07:29:21.858Z,7.32
2022-08-03T07:31:48.212Z,3.13
2022-08-03T07:34:14.808Z,3.28
2022-08-03T07:36:41.185Z,6.10
2022-08-03T07:39:15.988Z,9.23
2022-08-03T07:41:45.245Z,2.28
2022-08-03T07:44:11.684Z,7.65
2022-08-03T07:46:38.156Z,4.55
2022-08-03T07:49:05.318Z,5.40
2022-08-03T07:51:31.768Z,7.13
2022-08-03T07:53:58.110Z,7.30
2022-08-03T07:56:28.021Z,6.47
2022-08-03T07:58:55.221Z,2.85
2022-08-03T08:01:22.345Z,4.40
2022-08-03T08:03:53.474Z,6.70
2022-08-03T08:06:20.963Z,4.38
2022-08-03T08:08:47.400Z,5.22
2022-08-03T08:11:13.886Z,6.10
2022-08-03T08:13:40.460Z,4.00
2022-08-03T08:16:07.070Z,6.43
2022-08-03T08:18:34.399Z,4.32
2022-08-03T08:21:01.647Z,4.30
2022-08-03T08:23:41.521Z,5.18
2022-08-03T08:26:09.443Z,4.25
2022-08-03T08:28:35.809Z,3.27
2022-08-03T08:31:02.570Z,3.95
2022-08-03T08:33:42.482Z,4.45
2022-08-03T08:36:15.972Z,6.43
2022-08-03T08:38:44.398Z,6.32
2022-08-03T08:41:13.089Z,3.10
2022-08-03T08:43:39.475Z,3.92
2022-08-03T08:46:10.002Z,5.63
2022-08-03T08:48:41.723Z,3.70
2022-08-03T08:51:11.541Z,2.58
2022-08-03T08:53:41.668Z,3.93
2022-08-03T08:56:15.295Z,4.63
2022-08-03T08:58:48.943Z,3.45
2022-08-03T09:01:19.681Z,3.58
2022-08-03T09:03:46.848Z,4.45
2022-08-03T09:06:13.441Z,6.57
2022-08-03T09:08:39.871Z,3.45
2022-08-03T09:11:07.525Z,2.25
2022-08-03T09:13:35.092Z,3.25
2022-08-03T09:16:27.570Z,5.07
2022-08-03T09:18:54.474Z,5.77
2022-08-03T09:21:32.019Z,5.70
2022-08-03T09:24:04.718Z,5.90
2022-08-03T09:26:34.812Z,5.47
2022-08-03T09:29:14.987Z,4.43
2022-08-03T09:31:44.732Z,4.73
2022-08-03T09:34:14.623Z,4.50
2022-08-03T09:36:46.358Z,8.35
2022-08-03T09:39:14.351Z,8.98
2022-08-03T09:41:44.310Z,4.50
2022-08-03T09:44:24.553Z,9.13
2022-08-03T09:46:55.059Z,4.72
2022-08-03T09:49:21.641Z,3.55
2022-08-03T09:52:33.607Z,7.57
2022-08-03T09:54:35.220Z,8.82
2022-08-03T09:57:02.316Z,7.50
2022-08-03T09:59:30.890Z,8.25
2022-08-03T10:01:58.607Z,8.13
2022-08-03T10:04:25.790Z,9.13
2022-08-03T10:07:09.979Z,9.15
2022-08-03T10:09:37.483Z,9.70
2022-08-03T10:12:14.138Z,5.25
2022-08-03T10:14:42.122Z,9.13
2022-08-03T10:17:09.520Z,4.13
2022-08-03T10:19:36.452Z,4.75
2022-08-03T10:22:07.904Z,6.57
2022-08-03T10:24:38.406Z,9.52
2022-08-03T10:27:07.454Z,9.73
2022-08-03T10:29:45.279Z,6.60
2022-08-03T10:32:40.517Z,6.40
2022-08-03T10:35:20.659Z,2.60
2022-08-03T10:38:26.498Z,5.95
2022-08-03T10:40:59.261Z,5.13
2022-08-03T10:43:36.219Z,7.15
2022-08-03T10:46:06.680Z,5.18
2022-08-03T10:48:35.435Z,5.67
2022-08-03T10:51:01.928Z,6.85
2022-08-03T10:53:44.133Z,5.60
2022-08-03T10:56:57.813Z,7.80
2022-08-03T10:59:46.768Z,6.22
2022-08-03T11:02:14.331Z,5.87
2022-08-03T11:04:41.800Z,7.68
2022-08-03T11:07:17.468Z,5.97
2022-08-03T11:09:56.068Z,6.70
2022-08-03T11:12:28.449Z,5.05
2022-08-03T11:15:08.420Z,7.13
2022-08-03T11:17:46.860Z,4.90
2022-08-03T11:20:48.395Z,4.75
2022-08-03T11:23:16.384Z,3.53
2022-08-03T11:26:10.627Z,4.10
2022-08-03T11:28:39.168Z,5.03
2022-08-03T11:31:48.899Z,4.28
2022-08-03T11:34:16.027Z,5.03
2022-08-03T11:37:22.557Z,3.80
2022-08-03T11:39:51.772Z,4.15
2022-08-03T11:42:24.230Z,5.13
2022-08-03T11:44:51.939Z,4.35
2022-08-03T11:47:20.550Z,4.45
2022-08-03T11:49:48.615Z,5.57
2022-08-03T11:52:17.375Z,3.28
2022-08-03T11:54:44.452Z,4.30
2022-08-03T11:57:11.401Z,3.92
2022-08-03T11:59:38.741Z,5.80
2022-08-03T12:02:11.232Z,6.80
2022-08-03T12:05:00.075Z,5.10
2022-08-03T12:08:03.714Z,3.33
2022-08-03T12:10:15.580Z,2.50
2022-08-03T12:12:46.331Z,3.72
2022-08-03T12:15:13.123Z,3.90
2022-08-03T12:17:41.552Z,6.72
2022-08-03T12:20:09.993Z,5.63
2022-08-03T12:22:39.003Z,3.97
2022-08-03T12:25:07.168Z,5.13
2022-08-03T12:27:34.227Z,6.28
2022-08-03T12:30:01.935Z,3.47
2022-08-03T12:32:29.714Z,5.60
2022-08-03T12:35:05.863Z,3.95
2022-08-03T12:37:32.740Z,3.30
2022-08-03T12:40:07.857Z,2.40
2022-08-03T12:42:38.634Z,5.80
2022-08-03T12:45:26.812Z,4.60
2022-08-03T12:47:59.874Z,3.20
2022-08-03T12:50:31.501Z,6.68
2022-08-03T12:52:59.332Z,2.33
2022-08-03T12:55:40.199Z,2.63
2022-08-03T12:58:34.648Z,4.53
2022-08-03T13:01:05.192Z,4.30
2022-08-03T13:03:42.724Z,3.67
2022-08-03T13:06:14.675Z,3.88
2022-08-03T13:08:42.742Z,3.15
2022-08-03T13:11:47.556Z,2.97
2022-08-03T13:14:16.706Z,5.05
2022-08-03T13:16:46.795Z,2.67
2022-08-03T13:19:15.635Z,4.30
2022-08-03T13:21:53.726Z,11.52
2022-08-03T13:24:29.661Z,3.40
2022-08-03T13:26:56.979Z,6.45
2022-08-03T13:29:23.379Z,2.88
2022-08-03T13:31:51.115Z,2.75
2022-08-03T13:34:22.912Z,2.40
2022-08-03T13:37:08.299Z,4.00
2022-08-03T13:39:35.652Z,2.90
2022-08-03T13:42:22.016Z,2.25
2022-08-03T13:44:48.356Z,4.07
2022-08-03T13:47:14.801Z,2.70
2022-08-03T13:49:41.184Z,5.80
2022-08-03T13:52:07.726Z,2.60
2022-08-03T13:54:34.177Z,4.90
2022-08-03T13:57:00.793Z,2.17
2022-08-03T13:59:46.965Z,14.15
2022-08-03T14:02:13.398Z,2.63
2022-08-03T14:04:39.767Z,2.22
2022-08-03T14:07:06.216Z,3.53
2022-08-03T14:09:32.675Z,2.35
2022-08-03T14:12:07.896Z,2.20
2022-08-03T14:14:35.024Z,2.00
2022-08-03T14:17:01.406Z,2.03
2022-08-03T14:19:28.899Z,4.47
2022-08-03T14:22:06.107Z,2.63
2022-08-03T14:24:33.308Z,1.60
2022-08-03T14:27:07.138Z,4.73
2022-08-03T14:29:35.579Z,2.65
2022-08-03T14:32:11.751Z,3.97
2022-08-03T14:34:39.494Z,1.75
2022-08-03T14:37:06.199Z,3.60
2022-08-03T14:42:20.340Z,2.67
2022-08-03T14:44:47.167Z,3.05
2022-08-03T14:47:15.911Z,2.22
2022-08-03T14:50:38.973Z,1.88
2022-08-03T14:52:29.269Z,2.33
2022-08-03T14:54:55.617Z,2.00
2022-08-03T14:57:22.210Z,1.05
2022-08-03T14:59:55.582Z,4.35
2022-08-03T15:02:24.935Z,3.05
2022-08-03T15:04:52.057Z,3.70
2022-08-03T15:07:18.902Z,1.20
2022-08-03T15:09:45.743Z,2.03
2022-08-03T15:12:12.136Z,1.90
2022-08-03T15:14:38.772Z,3.13
2022-08-03T15:17:05.920Z,2.07
2022-08-03T15:20:00.509Z,4.35
2022-08-03T15:22:20.784Z,1.67
2022-08-03T15:24:51.462Z,2.03
2022-08-03T15:27:18.075Z,3.35
2022-08-03T15:30:05.573Z,1.30
2022-08-03T15:32:30.929Z,1.38
2022-08-03T15:34:57.265Z,1.88
2022-08-03T15:37:25.612Z,3.13
2022-08-03T15:39:59.090Z,2.67
2022-08-03T15:42:30.600Z,3.43
2022-08-03T15:44:57.208Z,2.78
2022-08-03T15:47:23.923Z,4.85
2022-08-03T15:49:50.323Z,3.00
2022-08-03T15:52:16.779Z,2.47
2022-08-03T15:54:43.165Z,2.00
2022-08-03T15:57:09.556Z,1.58
2022-08-03T15:59:36.014Z,3.33
2022-08-03T16:02:02.550Z,2.22
2022-08-03T16:04:29.073Z,2.35
2022-08-03T16:06:55.496Z,1.70
2022-08-03T16:09:24.199Z,2.20
2022-08-03T16:12:15.873Z,2.28
2022-08-03T16:14:51.949Z,3.85
2022-08-03T16:17:18.741Z,1.65
2022-08-03T16:19:45.260Z,2.10
2022-08-03T16:22:11.726Z,2.70
2022-08-03T16:24:40.688Z,3.50
2022-08-03T16:27:12.853Z,2.55
2022-08-03T16:29:44.496Z,3.03
2022-08-03T16:32:11.627Z,2.13
2022-08-03T16:34:39.391Z,2.28
2022-08-03T16:37:35.372Z,1.55
2022-08-03T16:39:53.636Z,3.63
2022-08-03T16:42:20.024Z,2.00
2022-08-03T16:44:49.640Z,1.13
2022-08-03T16:47:22.341Z,2.83
2022-08-03T16:49:54.780Z,2.45
2022-08-03T16:52:23.067Z,2.28
2022-08-03T16:54:50.767Z,1.13
2022-08-03T16:57:56.448Z,2.57
2022-08-03T17:00:12.181Z,2.05
2022-08-03T17:03:00.103Z,2.70
2022-08-03T17:05:27.342Z,1.75
2022-08-03T17:08:12.674Z,1.80
2022-08-03T17:10:42.135Z,2.40
2022-08-03T17:13:12.979Z,4.18
2022-08-03T17:16:00.909Z,3.78
2022-08-03T17:18:33.984Z,8.52
2022-08-03T17:21:05.674Z,3.40
2022-08-03T17:23:57.538Z,4.43
2022-08-03T17:26:30.255Z,6.45
2022-08-03T17:29:11.292Z,3.55
2022-08-03T17:31:48.685Z,10.60
2022-08-03T17:34:15.923Z,4.30
2022-08-03T17:39:55.782Z,4.53
2022-08-03T17:42:39.067Z,6.25
2022-08-03T17:45:06.690Z,2.95
2022-08-03T17:47:41.785Z,5.57
2022-08-03T17:53:07.402Z,4.60
2022-08-03T17:55:55.442Z,7.35
2022-08-03T17:58:39.729Z,6.13
2022-08-03T18:02:02.107Z,6.53
2022-08-03T18:04:21.647Z,2.07
2022-08-03T18:07:10.969Z,4.43
2022-08-03T18:10:03.426Z,5.65
2022-08-03T18:12:47.942Z,2.10
2022-08-03T18:15:26.783Z,4.75
2022-08-03T18:20:45.641Z,4.53
2022-08-03T18:23:25.394Z,3.60
2022-08-03T18:26:01.431Z,2.97
2022-08-03T18:28:29.145Z,3.65
2022-08-03T18:30:57.131Z,4.33
2022-08-03T18:34:17.196Z,4.03
2022-08-03T18:36:17.964Z,3.80
2022-08-03T18:38:50.849Z,3.50
2022-08-03T18:41:32.902Z,5.10
2022-08-03T18:44:06.857Z,4.23
2022-08-03T18:46:50.800Z,3.78
2022-08-03T18:49:51.288Z,2.92
2022-08-03T18:52:27.125Z,4.80
2022-08-03T18:55:19.995Z,2.55
2022-08-03T18:58:06.723Z,3.63
2022-08-03T19:00:53.991Z,4.38
2022-08-03T19:03:41.571Z,2.33
2022-08-03T19:06:19.632Z,2.47
2022-08-03T19:08:56.361Z,2.05
2022-08-03T19:12:12.741Z,2.07
2022-08-03T19:14:22.645Z,2.35
2022-08-03T19:17:04.788Z,2.47
2022-08-03T19:19:43.488Z,3.20
2022-08-03T19:22:11.969Z,2.80
2022-08-03T19:24:45.145Z,4.77
2022-08-03T19:27:12.268Z,1.42
2022-08-03T19:29:59.328Z,2.25
2022-08-03T19:32:29.881Z,4.32
2022-08-03T19:34:58.622Z,1.08
2022-08-03T19:37:27.525Z,1.63
2022-08-03T19:40:06.068Z,1.88
2022-08-03T19:42:47.589Z,1.95
2022-08-03T19:45:21.140Z,1.95
2022-08-03T19:47:52.064Z,2.60
2022-08-03T19:50:20.341Z,1.93
2022-08-03T19:52:49.605Z,3.00
2022-08-03T19:55:17.461Z,3.97
2022-08-03T19:57:49.309Z,2.58
2022-08-03T20:00:26.108Z,2.85
2022-08-03T20:02:53.666Z,2.93
2022-08-03T20:05:20.305Z,3.42
2022-08-03T20:07:47.757Z,4.63
2022-08-03T20:10:16.485Z,2.35
2022-08-03T20:12:44.763Z,4.45
2022-08-03T20:15:11.567Z,1.63
2022-08-03T20:17:54.882Z,3.70
2022-08-03T20:20:27.903Z,1.75
2022-08-03T20:22:58.625Z,2.50
2022-08-03T20:25:39.440Z,2.03
2022-08-03T20:28:26.930Z,2.47
2022-08-03T20:30:53.411Z,2.90
2022-08-03T20:33:19.790Z,1.00
2022-08-03T20:35:54.439Z,1.73
2022-08-03T20:38:27.353Z,1.67
2022-08-03T20:40:54.039Z,2.53
2022-08-03T20:43:26.539Z,4.18
2022-08-03T20:45:59.800Z,2.10
2022-08-03T20:48:42.759Z,1.92
2022-08-03T20:51:19.665Z,2.88
2022-08-03T20:54:00.555Z,3.47
2022-08-03T20:56:32.172Z,2.80
2022-08-03T20:59:07.324Z,2.53
2022-08-03T21:01:41.617Z,2.72
2022-08-03T21:04:13.523Z,2.40
2022-08-03T21:06:45.647Z,4.60
2022-08-03T21:09:33.528Z,3.05
2022-08-03T21:12:11.726Z,2.78
2022-08-03T21:12:57.498Z,4.83
2022-08-03T21:13:06.033Z,2.80
2022-08-03T21:14:52.455Z,2.83
2022-08-03T21:17:39.187Z,1.65
2022-08-03T21:20:08.536Z,5.43
2022-08-03T21:22:42.360Z,2.30
2022-08-03T21:25:09.341Z,2.45
2022-08-03T21:27:36.769Z,4.30
2022-08-03T21:30:06.589Z,2.25
2022-08-03T21:32:33.621Z,2.10
2022-08-03T21:35:01.221Z,2.83
2022-08-03T21:37:28.983Z,2.17
2022-08-03T21:39:56.488Z,2.67
2022-08-03T21:42:23.837Z,2.47
2022-08-03T21:44:52.096Z,3.63
2022-08-03T21:47:24.097Z,4.50
2022-08-03T21:50:08.572Z,1.83
2022-08-03T21:52:43.293Z,2.67
2022-08-03T21:55:18.683Z,2.75
2022-08-03T21:57:51.767Z,3.10
2022-08-03T22:00:20.493Z,2.70
2022-08-03T22:02:57.412Z,3.78
2022-08-03T22:05:42.459Z,4.22
2022-08-03T22:08:10.741Z,1.98
2022-08-03T22:10:37.178Z,1.93
2022-08-03T22:13:03.611Z,2.15
2022-08-03T22:15:30.631Z,2.13
2022-08-03T22:17:57.503Z,2.25
2022-08-03T22:20:24.439Z,3.03
2022-08-03T22:22:56.052Z,3.03
2022-08-03T22:25:27.331Z,2.95
2022-08-03T22:27:54.746Z,2.05
2022-08-03T22:30:21.260Z,2.15
2022-08-03T22:32:52.736Z,2.40
2022-08-03T22:35:20.691Z,2.87
2022-08-03T22:37:52.338Z,2.47
2022-08-03T22:40:19.436Z,2.38
2022-08-03T22:42:46.253Z,1.85
2022-08-03T22:46:06.474Z,1.90
2022-08-03T22:47:59.803Z,1.70
2022-08-03T22:50:32.378Z,2.33
2022-08-03T22:52:59.390Z,3.22
2022-08-03T22:55:26.949Z,2.60
2022-08-03T22:57:55.764Z,4.45
2022-08-03T23:00:24.365Z,3.17
2022-08-03T23:02:51.751Z,2.33
2022-08-03T23:06:00.653Z,2.30
2022-08-03T23:08:14.547Z,2.50
2022-08-03T23:10:46.700Z,1.83
2022-08-03T23:13:16.017Z,1.50
2022-08-03T23:15:45.583Z,1.42
2022-08-03T23:18:12.186Z,2.92
2022-08-03T23:20:38.668Z,2.17
2022-08-03T23:23:05.186Z,2.20
2022-08-03T23:25:31.697Z,4.40
2022-08-03T23:28:05.391Z,2.20
2022-08-03T23:30:37.004Z,2.35
2022-08-03T23:33:04.345Z,1.52
2022-08-03T23:36:22.619Z,2.35
2022-08-03T23:38:39.449Z,2.20
2022-08-03T23:41:08.975Z,3.22
2022-08-03T23:43:44.975Z,3.13
2022-08-03T23:46:20.223Z,2.53
2022-08-03T23:48:46.565Z,1.55
2022-08-03T23:51:42.149Z,2.37
2022-08-03T23:54:20.974Z,2.65
2022-08-03T23:57:13.148Z,2.97
